createdAt,value
2023-10-02T00:02:34.558Z,100937.16
2023-10-02T00:05:07.403Z,100939.88
2023-10-02T00:07:37.084Z,100943.25
2023-10-02T00:10:07.446Z,100934.91
2023-10-02T00:12:36.358Z,100940.41
2023-10-02T00:15:13.591Z,100934.78
2023-10-02T00:17:46.220Z,100931.53
2023-10-02T00:20:22.939Z,100934.91
2023-10-02T00:22:52.311Z,100932.63
2023-10-02T00:25:28.758Z,100931.13
2023-10-02T00:28:01.223Z,100932.88
2023-10-02T00:30:37.857Z,100935.44
2023-10-02T00:33:13.067Z,100923.72
2023-10-02T00:35:52.902Z,100922.91
2023-10-02T00:38:21.712Z,100923.44
2023-10-02T00:40:50.118Z,100917.28
2023-10-02T00:43:41.577Z,100917.56
2023-10-02T00:46:24.774Z,100924.00
2023-10-02T00:48:54.329Z,100926.97
2023-10-02T00:51:23.143Z,100928.56
2023-10-02T00:53:55.214Z,100924.41
2023-10-02T00:56:25.267Z,100929.78
2023-10-02T00:59:00.247Z,100926.28
2023-10-02T01:01:31.058Z,100926.16
2023-10-02T01:04:12.684Z,100936.53
2023-10-02T01:07:06.070Z,100939.22
2023-10-02T01:09:36.334Z,100938.56
2023-10-02T01:12:07.237Z,100945.16
2023-10-02T01:14:52.320Z,100942.88
2023-10-02T01:17:23.503Z,100943.00
2023-10-02T01:19:59.109Z,100941.94
2023-10-02T01:22:29.862Z,100940.31
2023-10-02T01:25:15.624Z,100946.81
2023-10-02T01:27:48.838Z,100939.38
2023-10-02T01:30:18.437Z,100941.94
2023-10-02T01:33:13.343Z,100937.09
2023-10-02T01:35:50.746Z,100936.97
2023-10-02T01:38:31.025Z,100929.81
2023-10-02T01:41:06.115Z,100931.03
2023-10-02T01:43:40.844Z,100923.75
2023-10-02T01:46:10.141Z,100924.69
2023-10-02T01:48:41.736Z,100929.69
2023-10-02T01:51:27.568Z,100936.00
2023-10-02T01:53:58.773Z,100943.81
2023-10-02T01:56:30.853Z,100938.19
2023-10-02T01:59:12.136Z,100942.63
2023-10-02T02:01:54.165Z,100940.06
2023-10-02T02:04:26.016Z,100944.09
2023-10-02T02:06:56.443Z,100949.34
2023-10-02T02:09:26.348Z,100953.78
2023-10-02T02:12:17.204Z,100953.75
2023-10-02T02:14:53.033Z,100955.50
2023-10-02T02:17:26.715Z,100960.47
2023-10-02T02:19:55.955Z,100954.53
2023-10-02T02:22:27.574Z,100953.81
2023-10-02T02:24:59.850Z,100954.38
2023-10-02T02:27:30.364Z,100951.28
2023-10-02T02:29:59.442Z,100955.97
2023-10-02T02:32:46.245Z,100951.22
2023-10-02T02:35:16.921Z,100954.97
2023-10-02T02:37:45.934Z,100961.59
2023-10-02T02:40:27.873Z,100962.13
2023-10-02T02:43:00.024Z,100959.13
2023-10-02T02:45:30.825Z,100955.31
2023-10-02T02:48:06.126Z,100952.34
2023-10-02T02:50:37.097Z,100957.97
2023-10-02T02:53:23.420Z,100955.94
2023-10-02T02:56:16.336Z,100952.28
2023-10-02T02:58:49.731Z,100955.38
2023-10-02T03:01:24.518Z,100957.50
2023-10-02T03:03:53.948Z,100952.91
2023-10-02T03:06:24.773Z,100951.78
2023-10-02T03:08:54.177Z,100963.38
2023-10-02T03:11:30.407Z,100968.38
2023-10-02T03:14:13.901Z,100955.53
2023-10-02T03:16:46.409Z,100957.47
2023-10-02T03:19:17.764Z,100962.59
2023-10-02T03:21:48.704Z,100952.97
2023-10-02T03:24:20.692Z,100952.03
2023-10-02T03:26:54.847Z,100950.94
2023-10-02T03:29:25.504Z,100953.38
2023-10-02T03:31:54.521Z,100956.56
2023-10-02T03:34:29.807Z,100947.78
2023-10-02T03:37:02.671Z,100948.44
2023-10-02T03:39:49.340Z,100955.19
2023-10-02T03:42:23.642Z,100953.44
2023-10-02T03:44:55.793Z,100950.75
2023-10-02T03:47:25.128Z,100948.16
2023-10-02T03:50:01.922Z,100945.44
2023-10-02T03:52:32.185Z,100939.66
2023-10-02T03:55:15.706Z,100939.00
2023-10-02T03:57:52.385Z,100941.56
2023-10-02T04:00:27.270Z,100946.97
2023-10-02T04:02:58.465Z,100944.41
2023-10-02T04:05:35.375Z,100942.97
2023-10-02T04:08:23.564Z,100945.78
2023-10-02T04:10:57.632Z,100950.28
2023-10-02T04:13:28.844Z,100943.97
2023-10-02T04:16:13.019Z,100945.13
2023-10-02T04:19:00.307Z,100946.53
2023-10-02T04:21:30.367Z,100955.47
2023-10-02T04:23:59.267Z,100950.91
2023-10-02T04:26:30.514Z,100941.34
2023-10-02T04:29:14.823Z,100947.06
2023-10-02T04:31:46.127Z,100960.28
2023-10-02T04:34:25.213Z,100964.44
2023-10-02T04:36:54.590Z,100962.56
2023-10-02T04:39:41.016Z,100967.16
2023-10-02T04:42:16.026Z,100959.91
2023-10-02T04:44:48.844Z,100962.03
2023-10-02T04:47:20.685Z,100968.38
2023-10-02T04:50:08.274Z,100959.16
2023-10-02T04:52:59.070Z,100964.50
2023-10-02T04:55:32.790Z,100959.66
2023-10-02T04:58:05.875Z,100965.28
2023-10-02T05:00:37.566Z,100962.31
2023-10-02T05:03:11.285Z,100962.97
2023-10-02T05:05:43.551Z,100960.03
2023-10-02T05:08:20.421Z,100958.53
2023-10-02T05:10:51.406Z,100966.78
2023-10-02T05:13:40.333Z,100958.38
2023-10-02T05:16:12.583Z,100964.53
2023-10-02T05:18:48.897Z,100959.47
2023-10-02T05:21:18.965Z,100960.13
2023-10-02T05:23:58.201Z,100974.66
2023-10-02T05:26:35.956Z,100968.66
2023-10-02T05:29:09.772Z,100977.06
2023-10-02T05:31:42.717Z,100980.69
2023-10-02T05:34:23.284Z,100986.31
2023-10-02T05:37:14.073Z,100985.72
2023-10-02T05:39:43.744Z,100994.31
2023-10-02T05:42:15.257Z,100996.66
2023-10-02T05:44:45.551Z,100990.34
2023-10-02T05:47:17.796Z,101002.00
2023-10-02T05:49:51.083Z,100997.25
2023-10-02T05:52:22.128Z,101003.09
2023-10-02T05:54:55.482Z,101006.78
2023-10-02T05:57:30.207Z,101002.59
2023-10-02T06:00:01.786Z,101012.06
2023-10-02T06:02:34.063Z,100999.97
2023-10-02T06:05:13.487Z,101009.44
2023-10-02T06:07:45.211Z,100995.66
2023-10-02T06:10:27.175Z,100997.25
2023-10-02T06:13:04.935Z,101000.97
2023-10-02T06:15:48.677Z,101013.84
2023-10-02T06:18:26.362Z,101005.66
2023-10-02T06:21:03.268Z,101009.56
2023-10-02T06:23:39.201Z,101007.47
2023-10-02T06:26:11.316Z,101013.78
2023-10-02T06:28:40.928Z,101008.34
2023-10-02T06:31:10.195Z,101005.53
2023-10-02T06:33:39.317Z,101007.84
2023-10-02T06:36:10.631Z,101004.81
2023-10-02T06:38:39.546Z,101005.44
2023-10-02T06:41:14.595Z,101002.84
2023-10-02T06:43:43.369Z,101011.56
2023-10-02T06:46:15.325Z,101010.03
2023-10-02T06:48:45.644Z,101014.25
2023-10-02T06:51:15.819Z,101001.25
2023-10-02T06:53:45.139Z,101004.19
2023-10-02T06:56:14.873Z,101004.22
2023-10-02T06:58:58.777Z,101004.19
2023-10-02T07:01:29.591Z,100996.81
2023-10-02T07:04:10.767Z,100995.50
2023-10-02T07:06:41.405Z,101000.53
2023-10-02T07:09:14.060Z,101001.00
2023-10-02T07:11:44.589Z,101012.09
2023-10-02T07:14:13.985Z,101005.16
2023-10-02T07:16:43.876Z,100997.94
2023-10-02T07:19:13.443Z,101007.44
2023-10-02T07:21:44.210Z,101003.22
2023-10-02T07:24:29.665Z,101003.56
2023-10-02T07:27:00.794Z,101000.16
2023-10-02T07:29:40.610Z,101001.38
2023-10-02T07:32:12.449Z,100997.41
2023-10-02T07:34:40.896Z,100995.59
2023-10-02T07:37:14.694Z,100994.03
2023-10-02T07:39:43.884Z,100989.38
2023-10-02T07:42:13.087Z,101001.56
2023-10-02T07:44:42.735Z,100993.81
2023-10-02T07:47:19.534Z,100996.25
2023-10-02T07:49:51.305Z,100993.19
2023-10-02T07:52:39.642Z,100990.53
2023-10-02T07:55:12.389Z,100995.53
2023-10-02T07:57:41.499Z,101000.53
2023-10-02T08:00:31.842Z,100987.94
2023-10-02T08:03:03.972Z,100982.97
2023-10-02T08:05:35.710Z,100986.03
2023-10-02T08:08:10.720Z,100987.25
2023-10-02T08:10:51.594Z,100981.72
2023-10-02T08:13:33.765Z,100986.34
2023-10-02T08:16:06.124Z,100990.59
2023-10-02T08:18:35.070Z,100990.03
2023-10-02T08:21:05.461Z,100990.53
2023-10-02T08:23:35.758Z,100986.63
2023-10-02T08:26:25.330Z,100983.88
2023-10-02T08:28:55.263Z,100995.97
2023-10-02T08:31:29.326Z,100993.34
2023-10-02T08:34:11.455Z,101003.97
2023-10-02T08:36:43.575Z,101006.34
2023-10-02T08:41:52.398Z,100996.69
2023-10-02T08:44:24.005Z,101000.94
2023-10-02T08:46:56.782Z,101009.38
2023-10-02T08:49:27.712Z,101013.88
2023-10-02T08:51:58.765Z,101011.53
2023-10-02T08:54:30.688Z,101011.53
2023-10-02T08:57:08.340Z,101005.84
2023-10-02T08:59:43.965Z,100999.13
2023-10-02T09:02:15.930Z,101003.56
2023-10-02T09:05:11.391Z,101000.44
2023-10-02T09:08:02.676Z,100999.03
2023-10-02T09:10:42.567Z,100987.88
2023-10-02T09:13:16.048Z,101001.06
2023-10-02T09:15:48.180Z,100999.59
2023-10-02T09:18:35.734Z,100999.38
2023-10-02T09:21:15.626Z,100990.50
2023-10-02T09:23:53.330Z,100981.63
2023-10-02T09:26:26.781Z,100979.97
2023-10-02T09:29:02.892Z,100982.16
2023-10-02T09:31:34.680Z,100979.44
2023-10-02T09:34:22.841Z,100980.16
2023-10-02T09:37:42.988Z,100975.06
2023-10-02T09:40:16.091Z,100968.94
2023-10-02T09:42:49.861Z,100976.28
2023-10-02T09:45:32.739Z,100969.09
2023-10-02T09:48:07.361Z,100966.03
2023-10-02T09:50:42.602Z,100959.47
2023-10-02T09:53:12.563Z,100968.00
2023-10-02T09:55:57.708Z,100959.72
2023-10-02T09:58:38.847Z,100954.28
2023-10-02T10:01:38.917Z,100954.31
2023-10-02T10:04:21.688Z,100963.53
2023-10-02T10:07:08.375Z,100965.69
2023-10-02T10:09:51.118Z,100953.47
2023-10-02T10:12:33.461Z,100964.97
2023-10-02T10:15:25.983Z,100962.03
2023-10-02T10:17:58.150Z,100969.28
2023-10-02T10:20:29.066Z,100964.88
2023-10-02T10:22:58.006Z,100950.44
2023-10-02T10:25:46.554Z,100949.31
2023-10-02T10:28:29.066Z,100953.19
2023-10-02T10:31:03.584Z,100948.75
2023-10-02T10:33:36.888Z,100944.94
2023-10-02T10:36:43.371Z,100934.91
2023-10-02T10:39:53.580Z,100938.91
2023-10-02T10:42:25.401Z,100931.72
2023-10-02T10:44:58.580Z,100931.84
2023-10-02T10:47:41.143Z,100932.59
2023-10-02T10:50:23.995Z,100928.78
2023-10-02T10:53:02.641Z,100923.31
2023-10-02T10:55:34.959Z,100921.47
2023-10-02T11:00:40.681Z,100924.47
2023-10-02T11:03:13.139Z,100925.88
2023-10-02T11:05:42.521Z,100925.66
2023-10-02T11:08:26.816Z,100920.22
2023-10-02T11:11:07.920Z,100917.31
2023-10-02T11:13:54.564Z,100919.69
2023-10-02T11:16:35.788Z,100915.50
2023-10-02T11:19:36.384Z,100910.88
2023-10-02T11:22:16.374Z,100907.88
2023-10-02T11:24:49.837Z,100895.00
2023-10-02T11:27:19.497Z,100892.47
2023-10-02T11:30:03.023Z,100892.19
2023-10-02T11:33:01.644Z,100897.13
2023-10-02T11:35:31.358Z,100903.25
2023-10-02T11:38:02.645Z,100903.09
2023-10-02T11:40:34.129Z,100897.84
2023-10-02T11:43:03.501Z,100906.38
2023-10-02T11:45:34.185Z,100904.56
2023-10-02T11:48:03.243Z,100895.75
2023-10-02T11:50:32.250Z,100893.44
2023-10-02T11:53:01.940Z,100889.97
2023-10-02T11:55:30.360Z,100885.63
2023-10-02T11:58:00.697Z,100892.91
2023-10-02T12:00:29.762Z,100890.16
2023-10-02T12:03:01.224Z,100877.50
2023-10-02T12:05:31.705Z,100885.13
2023-10-02T12:08:01.073Z,100887.00
2023-10-02T12:10:30.185Z,100882.25
2023-10-02T12:13:03.484Z,100886.09
2023-10-02T12:15:32.515Z,100889.53
2023-10-02T12:18:02.417Z,100883.28
2023-10-02T12:20:32.145Z,100871.44
2023-10-02T12:23:01.848Z,100875.84
2023-10-02T12:25:30.925Z,100866.91
2023-10-02T12:28:02.064Z,100852.75
2023-10-02T12:30:36.021Z,100871.13
2023-10-02T12:33:05.945Z,100860.09
2023-10-02T12:35:35.445Z,100867.41
2023-10-02T12:38:04.770Z,100865.19
2023-10-02T12:40:35.404Z,100850.81
2023-10-02T12:43:06.538Z,100846.28
2023-10-02T12:45:37.742Z,100847.75
2023-10-02T12:48:08.775Z,100859.34
2023-10-02T12:50:41.406Z,100859.50
2023-10-02T12:53:12.467Z,100851.38
2023-10-02T12:55:44.673Z,100844.69
2023-10-02T12:58:15.650Z,100841.03
2023-10-02T13:00:44.569Z,100832.69
2023-10-02T13:03:13.562Z,100835.97
2023-10-02T13:05:44.204Z,100842.31
2023-10-02T13:08:13.217Z,100833.34
2023-10-02T13:10:43.358Z,100830.09
2023-10-02T13:13:13.243Z,100834.09
2023-10-02T13:15:43.896Z,100827.00
2023-10-02T13:18:13.157Z,100824.50
2023-10-02T13:20:42.125Z,100833.59
2023-10-02T13:23:11.131Z,100833.75
2023-10-02T13:25:41.240Z,100831.28
2023-10-02T13:28:13.078Z,100822.66
2023-10-02T13:30:44.059Z,100806.47
2023-10-02T13:33:14.304Z,100819.53
2023-10-02T13:35:45.602Z,100813.84
2023-10-02T13:38:15.257Z,100808.28
2023-10-02T13:40:43.755Z,100813.84
2023-10-02T13:43:13.049Z,100805.06
2023-10-02T13:45:47.036Z,100806.22
2023-10-02T13:48:17.768Z,100805.91
2023-10-02T13:51:02.492Z,100807.19
2023-10-02T13:53:33.973Z,100802.53
2023-10-02T13:56:10.419Z,100803.66
2023-10-02T13:58:40.416Z,100800.88
2023-10-02T14:01:10.662Z,100799.41
2023-10-02T14:03:39.366Z,100806.91
2023-10-02T14:06:09.659Z,100801.88
2023-10-02T14:08:40.728Z,100801.06
2023-10-02T14:11:10.191Z,100803.34
2023-10-02T14:13:39.059Z,100801.78
2023-10-02T14:16:08.803Z,100801.53
2023-10-02T14:18:40.063Z,100802.91
2023-10-02T14:21:10.804Z,100802.09
2023-10-02T14:23:40.423Z,100800.66
2023-10-02T14:26:10.541Z,100796.25
2023-10-02T14:28:38.978Z,100792.88
2023-10-02T14:31:08.995Z,100798.94
2023-10-02T14:33:42.156Z,100797.66
2023-10-02T14:36:11.276Z,100797.03
2023-10-02T14:38:40.933Z,100788.78
2023-10-02T14:41:10.702Z,100798.72
2023-10-02T14:43:39.351Z,100791.53
2023-10-02T14:46:08.504Z,100796.16
2023-10-02T14:48:46.726Z,100795.94
2023-10-02T14:51:19.195Z,100791.22
2023-10-02T14:53:48.209Z,100798.81
2023-10-02T14:56:17.268Z,100792.63
2023-10-02T14:58:49.379Z,100788.19
2023-10-02T15:01:20.413Z,100791.59
2023-10-02T15:03:50.576Z,100790.81
2023-10-02T15:06:20.868Z,100784.84
2023-10-02T15:08:49.507Z,100792.66
2023-10-02T15:11:19.628Z,100794.50
2023-10-02T15:13:48.302Z,100793.91
2023-10-02T15:16:17.356Z,100797.53
2023-10-02T15:18:48.238Z,100796.94
2023-10-02T15:21:18.399Z,100799.38
2023-10-02T15:23:49.739Z,100810.06
2023-10-02T15:26:20.060Z,100803.03
2023-10-02T15:28:50.475Z,100795.06
2023-10-02T15:31:19.971Z,100801.31
2023-10-02T15:33:48.816Z,100802.56
2023-10-02T15:36:18.953Z,100805.78
2023-10-02T15:38:50.253Z,100806.63
2023-10-02T15:41:28.824Z,100811.84
2023-10-02T15:43:59.028Z,100809.88
2023-10-02T15:46:28.282Z,100820.69
2023-10-02T15:48:57.193Z,100818.28
2023-10-02T15:51:26.601Z,100811.34
2023-10-02T15:53:57.507Z,100811.72
2023-10-02T15:56:28.886Z,100815.75
2023-10-02T15:58:57.478Z,100818.94
2023-10-02T16:01:26.948Z,100816.78
2023-10-02T16:03:56.084Z,100812.56
2023-10-02T16:06:25.331Z,100813.78
2023-10-02T16:08:55.617Z,100817.81
2023-10-02T16:11:27.439Z,100821.59
2023-10-02T16:13:57.772Z,100820.22
2023-10-02T16:16:26.735Z,100815.44
2023-10-02T16:18:55.569Z,100816.59
2023-10-02T16:21:26.724Z,100811.78
2023-10-02T16:23:55.549Z,100805.97
2023-10-02T16:26:26.005Z,100812.59
2023-10-02T16:28:54.450Z,100810.59
2023-10-02T16:31:26.881Z,100813.81
2023-10-02T16:33:56.328Z,100811.63
2023-10-02T16:36:26.525Z,100816.81
2023-10-02T16:41:31.248Z,100812.22
2023-10-02T16:44:00.325Z,100813.03
2023-10-02T16:46:29.258Z,100806.63
2023-10-02T16:48:58.412Z,100815.63
2023-10-02T16:51:27.289Z,100809.84
2023-10-02T16:53:56.816Z,100810.06
2023-10-02T16:56:25.766Z,100812.22
2023-10-02T16:58:55.892Z,100809.44
2023-10-02T17:01:24.844Z,100806.84
2023-10-02T17:03:55.387Z,100814.63
2023-10-02T17:06:27.404Z,100808.44
2023-10-02T17:08:56.280Z,100808.25
2023-10-02T17:11:28.338Z,100807.03
2023-10-02T17:13:58.271Z,100802.03
2023-10-02T17:16:26.884Z,100802.25
2023-10-02T17:18:55.753Z,100801.66
2023-10-02T17:21:31.560Z,100804.66
2023-10-02T17:24:01.673Z,100808.44
2023-10-02T17:26:31.814Z,100813.44
2023-10-02T17:29:04.036Z,100803.03
2023-10-02T17:31:32.834Z,100807.03
2023-10-02T17:34:01.792Z,100798.81
2023-10-02T17:36:31.075Z,100796.38
2023-10-02T17:39:01.006Z,100793.78
2023-10-02T17:41:30.065Z,100801.16
2023-10-02T17:43:58.917Z,100799.34
2023-10-02T17:46:28.978Z,100791.31
2023-10-02T17:48:57.793Z,100795.31
2023-10-02T17:51:27.020Z,100790.91
2023-10-02T17:53:56.395Z,100796.47
2023-10-02T17:56:26.979Z,100791.28
2023-10-02T17:58:56.242Z,100801.88
2023-10-02T18:01:25.050Z,100800.09
2023-10-02T18:03:55.463Z,100790.88
2023-10-02T18:06:24.314Z,100790.88
2023-10-02T18:08:53.320Z,100794.25
2023-10-02T18:11:26.492Z,100788.81
2023-10-02T18:13:55.058Z,100804.16
2023-10-02T18:16:24.457Z,100801.16
2023-10-02T18:18:54.976Z,100809.75
2023-10-02T18:21:23.760Z,100808.38
2023-10-02T18:23:53.021Z,100818.97
2023-10-02T18:26:22.337Z,100809.97
2023-10-02T18:28:50.710Z,100806.63
2023-10-02T18:31:19.758Z,100805.41
2023-10-02T18:33:48.757Z,100805.59
2023-10-02T18:36:18.973Z,100815.16
2023-10-02T18:38:47.618Z,100815.16
2023-10-02T18:41:17.837Z,100810.16
2023-10-02T18:43:47.130Z,100805.38
2023-10-02T18:46:16.165Z,100806.56
2023-10-02T18:48:45.813Z,100817.13
2023-10-02T18:51:20.137Z,100813.13
2023-10-02T18:53:53.203Z,100808.69
2023-10-02T18:56:22.416Z,100804.06
2023-10-02T18:58:50.829Z,100793.84
2023-10-02T19:01:20.007Z,100803.63
2023-10-02T19:03:48.988Z,100801.00
2023-10-02T19:06:20.383Z,100799.19
2023-10-02T19:08:49.511Z,100794.56
2023-10-02T19:11:20.081Z,100797.53
2023-10-02T19:13:48.548Z,100795.72
2023-10-02T19:16:18.576Z,100792.50
2023-10-02T19:18:47.792Z,100790.28
2023-10-02T19:21:18.136Z,100785.84
2023-10-02T19:23:46.986Z,100787.22
2023-10-02T19:26:16.090Z,100786.00
2023-10-02T19:28:44.602Z,100780.22
2023-10-02T19:31:13.736Z,100780.78
2023-10-02T19:33:42.762Z,100780.34
2023-10-02T19:36:11.586Z,100776.72
2023-10-02T19:38:44.135Z,100775.50
2023-10-02T19:41:16.040Z,100772.72
2023-10-02T19:43:45.264Z,100776.31
2023-10-02T19:46:14.204Z,100776.09
2023-10-02T19:48:43.214Z,100774.13
2023-10-02T19:51:14.986Z,100776.53
2023-10-02T19:53:45.752Z,100773.34
2023-10-02T19:56:15.364Z,100775.94
2023-10-02T19:58:43.743Z,100773.09
2023-10-02T20:01:12.834Z,100772.84
2023-10-02T20:03:41.722Z,100769.22
2023-10-02T20:06:11.939Z,100772.56
2023-10-02T20:08:42.419Z,100767.94
2023-10-02T20:11:12.858Z,100770.66
2023-10-02T20:13:41.905Z,100760.84
2023-10-02T20:16:10.908Z,100763.19
2023-10-02T20:18:39.799Z,100756.41
2023-10-02T20:21:08.876Z,100767.31
2023-10-02T20:23:51.531Z,100758.69
2023-10-02T20:26:22.421Z,100753.44
2023-10-02T20:28:50.921Z,100751.41
2023-10-02T20:31:19.762Z,100753.38
2023-10-02T20:33:49.402Z,100764.06
2023-10-02T20:36:18.279Z,100761.88
2023-10-02T20:38:47.042Z,100757.06
2023-10-02T20:41:15.876Z,100753.03
2023-10-02T20:43:45.561Z,100744.84
2023-10-02T20:46:15.429Z,100747.00
2023-10-02T20:48:44.405Z,100746.75
2023-10-02T20:51:15.522Z,100743.72
2023-10-02T20:53:45.121Z,100735.53
2023-10-02T20:56:14.097Z,100744.28
2023-10-02T20:58:42.442Z,100735.72
2023-10-02T21:01:14.307Z,100737.88
2023-10-02T21:03:43.998Z,100732.25
2023-10-02T21:06:12.844Z,100737.97
2023-10-02T21:08:41.817Z,100737.28
2023-10-02T21:11:10.588Z,100731.41
2023-10-02T21:13:39.035Z,100732.75
2023-10-02T21:16:07.787Z,100729.72
2023-10-02T21:18:39.018Z,100729.09
2023-10-02T21:21:08.830Z,100726.84
2023-10-02T21:23:38.908Z,100728.00
2023-10-02T21:26:08.328Z,100729.19
2023-10-02T21:28:37.016Z,100726.59
2023-10-02T21:31:05.821Z,100725.97
2023-10-02T21:33:34.738Z,100728.00
2023-10-02T21:36:07.095Z,100726.84
2023-10-02T21:38:36.825Z,100730.59
2023-10-02T21:41:12.526Z,100730.41
2023-10-02T21:43:41.682Z,100722.84
2023-10-02T21:46:10.793Z,100721.69
2023-10-02T21:48:40.631Z,100718.31
2023-10-02T21:51:12.253Z,100718.31
2023-10-02T21:53:41.845Z,100725.84
2023-10-02T21:56:17.220Z,100716.19
2023-10-02T21:58:45.964Z,100710.03
2023-10-02T22:01:14.869Z,100707.25
2023-10-02T22:03:44.142Z,100715.81
2023-10-02T22:06:14.557Z,100712.25
2023-10-02T22:08:43.433Z,100706.09
2023-10-02T22:11:12.303Z,100707.09
2023-10-02T22:13:42.069Z,100711.06
2023-10-02T22:16:13.359Z,100707.09
2023-10-02T22:18:43.818Z,100711.28
2023-10-02T22:21:21.310Z,100702.88
2023-10-02T22:23:50.927Z,100699.06
2023-10-02T22:26:21.002Z,100702.00
2023-10-02T22:28:49.416Z,100702.78
2023-10-02T22:31:18.321Z,100700.38
2023-10-02T22:33:48.524Z,100703.75
2023-10-02T22:36:18.992Z,100702.00
2023-10-02T22:38:47.655Z,100694.56
2023-10-02T22:41:16.571Z,100699.75
2023-10-02T22:43:45.003Z,100699.13
2023-10-02T22:46:13.793Z,100696.56
2023-10-02T22:48:42.593Z,100691.75
2023-10-02T22:51:14.403Z,100692.72
2023-10-02T22:53:45.434Z,100682.56
2023-10-02T22:56:14.963Z,100686.13
2023-10-02T22:58:43.877Z,100681.31
2023-10-02T23:01:12.766Z,100681.06
2023-10-02T23:03:41.703Z,100672.69
2023-10-02T23:06:12.321Z,100666.91
2023-10-02T23:08:41.364Z,100671.47
2023-10-02T23:11:15.200Z,100672.25
2023-10-02T23:13:43.623Z,100668.06
2023-10-02T23:16:13.388Z,100671.19
2023-10-02T23:18:42.238Z,100671.34
2023-10-02T23:21:11.037Z,100672.09
2023-10-02T23:23:40.921Z,100674.03
2023-10-02T23:26:18.650Z,100671.63
2023-10-02T23:28:47.758Z,100668.59
2023-10-02T23:31:16.594Z,100663.97
2023-10-02T23:33:46.113Z,100671.63
2023-10-02T23:36:14.970Z,100668.78
2023-10-02T23:38:44.331Z,100664.41
2023-10-02T23:41:14.034Z,100660.66
2023-10-02T23:43:46.269Z,100661.19
2023-10-02T23:46:16.306Z,100654.19
2023-10-02T23:48:46.715Z,100658.88
2023-10-02T23:51:15.619Z,100666.00
2023-10-02T23:53:43.409Z,100648.09
2023-10-02T23:56:15.270Z,100649.72
2023-10-02T23:58:45.579Z,100648.47
